Time;durP1;ratioP1;P1;durP2;ratioP2;P2;SDS_P1;SDS_P2;PMS_P1;PMS_P2;Temp;Humidity;BMP_temperature;BMP_pressure;BME280_temperature;BME280_humidity;BME280_pressure;Samples;Min_cycle;Max_cycle;Signal;HPM_P1;HPM_P2
2021/04/26 00:01:48;;;;;;;;;;;;;;;;;;;;;
2021/04/26 00:04:18;;;;;;;;;;;;;;;4.56;59.59;99498.69;5010199;28;20136;-65
2021/04/26 00:06:50;;;;;;;11.45;3.00;;;;;;;4.17;59.73;99440.09;5007100;28;20304;-64
2021/04/26 00:09:35;;;;;;;4.90;2.45;;;;;;;4.18;60.04;99455.84;5008731;28;20049;-68
2021/04/26 00:12:20;;;;;;;7.68;3.10;;;;;;;3.99;60.24;99432.22;4991284;28;20045;-68
2021/04/26 00:17:47;;;;;;;4.75;2.72;;;;;;;4.15;60.40;99458.47;4966723;28;20049;-71
2021/04/26 00:20:27;;;;;;;5.72;2.55;;;;;;;4.29;61.04;99495.22;4952616;28;20054;-66
2021/04/26 00:22:59;;;;;;;6.88;2.80;;;;;;;4.00;60.98;99461.06;4949288;28;20174;-66
2021/04/26 00:25:55;;;;;;;5.90;2.85;;;;;;;4.46;60.30;99488.19;4953205;28;20045;-67
2021/04/26 00:28:25;;;;;;;6.43;2.67;;;;;;;4.52;60.50;99519.72;4952600;28;20657;-66
2021/04/26 00:31:02;;;;;;;5.65;2.60;;;;;;;4.31;60.69;99477.69;4945239;28;20050;-67
2021/04/26 00:33:41;;;;;;;4.80;2.28;;;;;;;4.56;60.22;99518.84;4928909;29;20106;-69
2021/04/26 00:36:36;;;;;;;;;;;;;;;4.60;60.54;99504.84;4929453;29;20055;-68
2021/04/26 00:39:21;;;;;;;5.57;2.78;;;;;;;4.21;60.37;99462.84;4913841;29;19929;-65
2021/04/26 00:42:21;;;;;;;6.50;2.55;;;;;;;4.27;60.36;99470.69;4919694;28;20066;-66
2021/04/26 00:45:09;;;;;;;2.72;2.20;;;;;;;4.10;60.97;99472.44;4932949;28;20074;-67
2021/04/26 00:48:17;;;;;;;3.92;2.63;;;;;;;4.28;61.02;99498.72;4936503;28;20132;-67
2021/04/26 00:50:55;;;;;;;6.85;3.38;;;;;;;4.08;61.09;99464.56;4932423;28;20085;-67
2021/04/26 00:53:38;;;;;;;6.13;3.10;;;;;;;4.02;61.20;99476.81;4936351;28;20072;-69
2021/04/26 00:56:33;;;;;;;4.70;3.10;;;;;;;3.96;61.71;99516.16;4979475;28;20073;-71
2021/04/26 00:59:37;;;;;;;5.13;2.80;;;;;;;3.50;62.30;99475.84;5005206;28;20454;-66
2021/04/26 01:02:14;;;;;;;5.22;2.88;;;;;;;3.76;61.79;99473.28;4988902;28;20103;-72
2021/04/26 01:04:51;;;;;;;7.93;2.78;;;;;;;3.56;62.47;99482.84;5004952;28;20044;-65
2021/04/26 01:07:51;;;;;;;4.30;2.40;;;;;;;3.33;62.74;99459.16;4990752;28;20050;-68
2021/04/26 01:10:34;;;;;;;5.47;2.65;;;;;;;3.70;62.84;99516.09;4916296;28;20091;-72
2021/04/26 01:13:49;;;;;;;4.47;2.65;;;;;;;3.76;62.43;99510.84;4933879;28;20509;-65
2021/04/26 01:16:31;;;;;;;3.83;2.40;;;;;;;3.91;62.45;99510.91;4931964;28;20149;-66
2021/04/26 01:19:46;;;;;;;6.10;2.80;;;;;;;3.64;62.45;99473.25;4917325;28;20054;-64
2021/04/26 01:23:08;;;;;;;7.45;2.97;;;;;;;3.36;63.03;99468.81;4933576;28;20046;-65
2021/04/26 01:25:47;;;;;;;4.43;3.22;;;;;;;3.33;63.12;99474.88;4932366;28;20082;-67
2021/04/26 01:28:47;;;;;;;7.57;2.70;;;;;;;3.56;63.14;99515.16;4918522;28;20046;-67
2021/04/26 01:31:57;;;;;;;7.30;3.10;;;;;;;3.06;63.55;99458.19;4921112;28;20049;-68
2021/04/26 01:34:48;;;;;;;9.63;3.15;;;;;;;3.31;64.10;99530.78;4926800;28;20167;-66
2021/04/26 01:37:34;;;;;;;3.88;2.40;;;;;;;3.43;63.85;99520.34;4918255;28;20038;-71
2021/04/26 01:40:15;;;;;;;;;;;;;;;3.48;63.65;99526.50;4916449;28;20047;-69
2021/04/26 01:42:52;;;;;;;2.50;1.90;;;;;;;3.04;63.83;99492.22;4932291;28;20083;-72
2021/04/26 01:45:27;;;;;;;;;;;;;;;3.30;63.51;99531.66;4914771;28;20047;-68
2021/04/26 01:48:50;;;;;;;5.45;2.80;;;;;;;3.24;64.56;99526.41;4963800;28;20051;-68
2021/04/26 01:56:24;;;;;;;5.78;2.47;;;;;;;2.83;65.08;99467.66;4966738;28;20030;-68
2021/04/26 01:59:24;;;;;;;4.30;2.90;;;;;;;2.89;64.95;99486.03;4887049;29;20055;-66
2021/04/26 02:01:53;;;;;;;4.30;2.40;;;;;;;3.03;64.89;99528.88;4879443;29;20060;-67
2021/04/26 02:04:20;;;;;;;5.00;2.88;;;;;;;2.85;65.05;99492.97;4877177;29;20092;-68
2021/04/26 02:07:03;;;;;;;4.50;2.42;;;;;;;2.56;65.73;99477.94;4892413;29;20091;-69
2021/04/26 02:09:38;;;;;;;5.43;2.67;;;;;;;2.57;65.85;99479.72;4909284;29;20449;-70
2021/04/26 02:12:11;;;;;;;5.97;3.45;;;;;;;2.40;65.46;99448.19;4876850;29;20338;-67
2021/04/26 02:14:42;;;;;;;4.70;2.75;;;;;;;2.79;65.58;99515.63;4876297;29;20056;-67
2021/04/26 02:17:10;;;;;;;4.68;2.90;;;;;;;2.69;65.50;99498.13;4874493;29;20057;-68
2021/04/26 02:19:39;;;;;;;9.50;3.17;;;;;;;3.08;65.04;99527.16;4890803;29;20099;-67
2021/04/26 02:22:11;;;;;;;5.15;3.28;;;;;;;3.26;64.39;99545.59;4908910;29;20142;-68
2021/04/26 02:24:52;;;;;;;7.25;2.97;;;;;;;2.99;65.29;99541.09;4884158;29;20264;-67
2021/04/26 02:27:19;;;;;;;5.45;3.20;;;;;;;3.01;65.12;99544.56;4898863;29;20534;-68
2021/04/26 02:29:49;;;;;;;4.40;3.17;;;;;;;3.09;64.89;99542.88;4897802;29;20055;-67
2021/04/26 02:32:24;;;;;;;5.88;3.30;;;;;;;3.21;64.58;99556.03;4896855;29;20079;-69
2021/04/26 02:35:13;;;;;;;3.70;2.63;;;;;;;2.83;65.02;99539.22;4929611;28;20096;-67
2021/04/26 02:37:50;;;;;;;4.78;3.05;;;;;;;2.94;65.28;99549.78;4994543;28;20405;-68
2021/04/26 02:40:18;;;;;;;6.20;2.92;;;;;;;2.66;65.32;99509.47;5010008;28;20055;-69
2021/04/26 02:42:55;;;;;;;8.40;3.70;;;;;;;2.63;65.49;99496.34;4994073;28;20048;-67
2021/04/26 02:45:27;;;;;;;7.35;3.45;;;;;;;2.42;65.11;99464.78;4995671;28;20065;-68
2021/04/26 02:47:55;;;;;;;5.88;2.90;;;;;;;2.81;64.79;99506.91;4995371;28;20045;-70
2021/04/26 02:50:29;;;;;;;7.75;3.30;;;;;;;2.87;64.44;99500.84;4993280;28;20051;-67
2021/04/26 02:53:09;;;;;;;5.55;3.20;;;;;;;3.01;65.04;99536.72;5012414;28;20091;-69
2021/04/26 02:55:37;;;;;;;6.05;3.42;;;;;;;2.97;64.88;99542.81;4992168;28;20144;-68
2021/04/26 02:58:04;;;;;;;4.03;2.60;;;;;;;3.02;65.06;99562.06;4993668;28;20546;-69
2021/04/26 03:01:05;;;;;;;7.65;3.45;;;;;;;2.83;65.12;99548.81;5010752;28;20477;-68
2021/04/26 03:04:16;;;;;;;7.30;3.45;;;;;;;3.08;64.93;99571.66;4941743;28;20051;-68
2021/04/26 03:06:48;;;;;;;7.57;3.55;;;;;;;3.00;65.06;99552.41;4921038;28;20465;-68
2021/04/26 03:09:22;;;;;;;6.75;3.25;;;;;;;2.90;64.29;99527.06;4935119;28;20089;-69
2021/04/26 03:11:55;;;;;;;5.45;3.20;;;;;;;3.09;63.85;99539.41;4919314;28;20133;-67
2021/04/26 03:14:24;;;;;;;7.20;3.33;;;;;;;3.01;63.81;99534.09;4935594;28;20141;-68
2021/04/26 03:16:53;;;;;;;11.27;3.40;;;;;;;3.16;63.73;99546.41;4935373;28;20050;-71
2021/04/26 03:19:21;;;;;;;7.63;3.25;;;;;;;3.02;64.17;99545.47;4933765;28;20050;-69
2021/04/26 03:21:50;;;;;;;8.27;3.45;;;;;;;3.30;63.55;99568.31;4950308;28;20074;-69
2021/04/26 03:24:20;;;;;;;7.35;3.60;;;;;;;3.26;63.93;99587.53;4928971;29;20486;-69
2021/04/26 03:26:54;;;;;;;6.72;3.10;;;;;;;3.16;64.11;99573.47;4946649;28;20054;-68
2021/04/26 03:29:22;;;;;;;6.28;3.30;;;;;;;3.32;63.42;99558.75;4951540;28;20070;-68
2021/04/26 03:31:52;;;;;;;7.80;4.18;;;;;;;3.31;63.37;99543.88;4951042;28;20582;-69
2021/04/26 03:34:22;;;;;;;5.45;2.85;;;;;;;3.56;63.07;99596.41;4951076;28;20081;-70
2021/04/26 03:36:50;;;;;;;8.93;4.00;;;;;;;3.68;62.58;99578.13;4934497;28;20129;-68
2021/04/26 03:39:17;;;;;;;7.00;3.15;;;;;;;3.55;62.59;99544.88;4915202;29;20055;-69
2021/04/26 03:41:50;;;;;;;8.07;3.60;;;;;;;3.75;62.51;99582.53;4986617;28;20049;-70
2021/04/26 03:44:22;;;;;;;7.88;3.15;;;;;;;3.65;62.97;99595.59;4994777;28;20057;-69
2021/04/26 03:47:08;;;;;;;8.55;3.10;;;;;;;3.37;63.58;99573.59;4998163;28;20567;-70
2021/04/26 03:50:05;;;;;;;7.72;3.13;;;;;;;3.67;62.89;99591.22;4956735;28;20042;-73
2021/04/26 03:53:07;;;;;;;3.78;2.50;;;;;;;3.33;63.09;99576.22;4930903;29;20467;-70
2021/04/26 03:55:49;;;;;;;5.13;3.17;;;;;;;3.53;63.23;99585.06;4915899;29;20920;-68
2021/04/26 03:58:19;;;;;;;3.75;2.33;;;;;;;3.50;62.95;99604.25;4915334;29;20043;-66
2021/04/26 04:00:46;;;;;;;7.32;3.58;;;;;;;3.54;63.66;99597.28;4914071;29;20055;-69
2021/04/26 04:03:14;;;;;;;5.82;3.00;;;;;;;3.69;62.97;99589.50;4914804;29;20973;-67
2021/04/26 04:05:43;;;;;;;5.32;2.97;;;;;;;3.66;63.08;99589.47;4931071;29;20058;-69
2021/04/26 04:08:29;;;;;;;10.00;4.60;;;;;;;3.81;62.45;99592.16;4944757;28;20048;-69
2021/04/26 04:11:14;;;;;;;4.40;3.20;;;;;;;3.80;62.58;99607.00;4929457;29;20424;-68
2021/04/26 04:14:02;;;;;;;9.48;3.05;;;;;;;3.86;62.40;99608.78;4898873;29;20055;-70
2021/04/26 04:16:30;;;;;;;8.65;3.40;;;;;;;3.42;63.10;99550.94;4880816;29;20072;-68
2021/04/26 04:18:58;;;;;;;7.47;3.17;;;;;;;3.79;62.79;99607.00;4880158;29;20043;-69
2021/04/26 04:21:29;;;;;;;7.13;3.20;;;;;;;3.96;63.22;99586.97;4881473;29;20135;-67
2021/04/26 04:23:56;;;;;;;5.38;3.10;;;;;;;3.81;62.65;99569.41;4883247;29;20071;-70
2021/04/26 04:26:24;;;;;;;7.03;3.40;;;;;;;3.71;62.56;99537.94;4916777;28;20053;-73
2021/04/26 04:29:04;;;;;;;8.25;3.13;;;;;;;4.06;62.28;99589.63;5009110;28;20072;-69
2021/04/26 04:31:41;;;;;;;5.75;3.10;;;;;;;3.81;62.59;99581.69;5010499;28;20041;-67
2021/04/26 04:34:37;;;;;;;5.22;3.08;;;;;;;3.91;62.25;99558.09;5012850;28;20119;-69
2021/04/26 04:37:25;;;;;;;6.00;3.05;;;;;;;3.98;62.04;99559.88;5009725;28;20055;-69
2021/04/26 04:40:11;;;;;;;4.72;2.92;;;;;;;4.05;61.96;99572.16;5010032;28;20049;-66
2021/04/26 04:42:51;;;;;;;5.13;2.97;;;;;;;4.23;61.65;99587.91;4994565;28;20036;-69
2021/04/26 04:45:19;;;;;;;4.82;3.05;;;;;;;3.98;61.80;99569.47;4992988;28;20068;-67
2021/04/26 04:48:18;;;;;;;7.57;4.30;;;;;;;4.08;62.18;99572.13;4987274;28;20045;-67
2021/04/26 04:50:49;;;;;;;5.63;2.65;;;;;;;4.48;61.18;99596.72;4967561;28;20160;-70
2021/04/26 04:53:16;;;;;;;5.65;3.05;;;;;;;4.17;61.27;99548.56;4969091;28;20045;-69
2021/04/26 04:55:43;;;;;;;14.13;3.13;;;;;;;4.37;61.23;99577.44;4969593;28;20179;-70
2021/04/26 04:58:10;;;;;;;4.80;3.05;;;;;;;4.27;61.35;99554.66;4971145;28;20072;-70
2021/04/26 05:13:04;;;;;;;9.00;2.97;;;;;;;4.86;59.62;99573.97;4850690;29;20049;-71
2021/04/26 05:15:38;;;;;;;7.00;3.05;;;;;;;5.02;59.62;99611.63;4835036;29;20057;-71
2021/04/26 05:18:07;;;;;;;7.68;3.65;;;;;;;4.74;59.76;99563.47;4831625;29;20756;-70
2021/04/26 05:20:34;;;;;;;6.45;3.20;;;;;;;4.90;59.70;99565.19;4817179;29;20057;-70
2021/04/26 05:23:04;;;;;;;5.30;3.13;;;;;;;5.08;59.52;99613.34;4834702;29;20054;-70
2021/04/26 05:25:32;;;;;;;5.15;2.85;;;;;;;5.01;59.54;99594.97;4839378;29;20835;-71
2021/04/26 05:28:04;;;;;;;7.25;2.67;;;;;;;5.07;59.79;99614.22;4872993;29;20055;-71
2021/04/26 05:30:34;;;;;;;3.92;2.75;;;;;;;5.26;59.05;99599.31;4842142;29;20096;-71
2021/04/26 05:33:03;;;;;;;6.55;2.83;;;;;;;5.18;57.90;99589.72;4873205;29;20050;-69
2021/04/26 05:36:12;;;;;;;6.30;3.00;;;;;;;5.00;58.59;99549.41;4843900;29;20049;-67
2021/04/26 05:38:54;;;;;;;5.07;2.40;;;;;;;5.44;58.20;99603.66;4866029;29;20049;-70
2021/04/26 05:41:24;;;;;;;4.90;2.42;;;;;;;5.15;58.10;99629.13;4818046;29;20136;-72
2021/04/26 05:43:54;;;;;;;5.97;2.58;;;;;;;5.30;57.90;99595.78;4855230;29;20065;-68
2021/04/26 05:46:27;;;;;;;6.82;2.47;;;;;;;5.55;58.49;99620.28;4854275;29;20067;-70
2021/04/26 05:48:55;;;;;;;5.05;2.75;;;;;;;5.58;57.81;99608.00;4868569;29;20192;-72
2021/04/26 05:51:24;;;;;;;5.90;2.55;;;;;;;5.41;57.44;99562.47;4876421;29;20048;-69
2021/04/26 05:53:53;;;;;;;7.90;2.80;;;;;;;5.49;58.14;99547.56;4907165;29;20155;-70
2021/04/26 05:56:20;;;;;;;2.90;2.00;;;;;;;5.64;56.96;99594.84;4876208;29;20135;-70
2021/04/26 05:58:51;;;;;;;6.82;2.92;;;;;;;5.53;56.72;99574.72;4894457;29;20126;-71
2021/04/26 06:01:17;;;;;;;5.78;3.03;;;;;;;5.49;57.27;99583.50;4923462;29;20122;-69
2021/04/26 06:03:44;;;;;;;6.45;3.47;;;;;;;5.59;56.94;99569.44;4924132;29;20083;-75
2021/04/26 06:06:11;;;;;;;4.00;2.45;;;;;;;6.12;56.50;99622.72;4896008;28;20141;-68
2021/04/26 06:08:37;;;;;;;3.08;2.30;;;;;;;6.18;55.61;99607.81;4971703;28;20092;-70
2021/04/26 06:11:04;;;;;;;5.60;3.03;;;;;;;5.73;55.88;99552.72;4971500;28;20509;-72
2021/04/26 06:13:31;;;;;;;6.72;2.20;;;;;;;6.22;56.18;99608.66;4983813;28;20111;-70
2021/04/26 06:15:57;;;;;;;4.60;2.40;;;;;;;6.04;55.49;99575.41;4991306;28;20045;-68
2021/04/26 06:18:24;;;;;;;3.22;2.17;;;;;;;6.37;55.01;99617.34;5007880;28;20146;-70
2021/04/26 06:20:53;;;;;;;8.98;3.30;;;;;;;6.40;54.61;99621.72;5006037;28;20049;-73
2021/04/26 06:23:20;;;;;;;7.97;2.28;;;;;;;6.58;54.26;99598.78;4984996;28;20042;-70
2021/04/26 06:25:47;;;;;;;8.65;2.40;;;;;;;6.44;54.09;99592.72;5005435;28;20049;-71
2021/04/26 06:28:16;;;;;;;4.88;2.30;;;;;;;6.55;54.71;99592.66;4987770;28;20405;-70
2021/04/26 06:30:58;;;;;;;10.05;2.65;;;;;;;6.67;54.68;99624.16;4992004;28;20065;-71
2021/04/26 06:33:31;;;;;;;;;;;;;;;7.06;53.75;99637.06;4995070;28;20472;-69
2021/04/26 06:36:00;;;;;;;3.58;2.13;;;;;;;7.05;53.15;99638.84;4992421;28;19917;-70
2021/04/26 06:38:27;;;;;;;4.43;2.05;;;;;;;7.07;52.61;99621.22;4994309;28;20049;-72
2021/04/26 06:40:55;;;;;;;5.07;2.38;;;;;;;7.12;51.78;99589.56;5025230;28;20052;-71
2021/04/26 06:43:22;;;;;;;6.47;2.90;;;;;;;7.00;51.67;99569.44;5008784;28;20042;-71
2021/04/26 06:45:48;;;;;;;7.95;3.40;;;;;;;7.32;51.45;99595.53;4993665;28;20089;-71
2021/04/26 06:48:18;;;;;;;4.97;2.35;;;;;;;7.58;50.84;99591.72;4994122;28;20041;-68
2021/04/26 06:50:49;;;;;;;6.18;1.90;;;;;;;7.40;49.99;99593.69;4993983;28;20127;-76
2021/04/26 06:53:17;;;;;;;3.35;2.03;;;;;;;7.54;49.67;99610.22;4994579;28;20505;-68
2021/04/26 06:56:38;;;;;;;6.20;2.20;;;;;;;8.19;48.86;99592.72;5008929;28;20045;-71
2021/04/26 06:59:35;;;;;;;5.97;2.15;;;;;;;8.34;48.49;99604.88;4996001;28;20045;-69
2021/04/26 07:02:33;;;;;;;5.85;2.22;;;;;;;8.20;48.62;99626.13;5011109;28;20674;-75
2021/04/26 07:05:24;;;;;;;3.25;2.00;;;;;;;8.35;46.07;99594.28;5011370;28;20043;-69
2021/04/26 07:07:56;;;;;;;3.28;1.45;;;;;;;9.09;45.93;99632.78;4994308;28;20049;-67
2021/04/26 07:10:29;;;;;;;2.67;1.30;;;;;;;9.26;45.98;99650.13;4981918;28;20104;-69
2021/04/26 07:12:56;;;;;;;4.72;1.55;;;;;;;9.21;46.17;99619.38;5010707;28;20045;-68
2021/04/26 07:15:28;;;;;;;4.25;1.30;;;;;;;9.18;45.57;99603.56;5008954;28;20512;-73
2021/04/26 07:18:04;;;;;;;3.03;1.48;;;;;;;9.62;44.87;99610.69;5010664;28;20043;-69
2021/04/26 07:20:41;;;;;;;2.63;1.60;;;;;;;10.01;44.05;99613.44;5011136;28;20131;-72
2021/04/26 07:23:13;;;;;;;21.60;2.75;;;;;;;10.43;44.63;99603.72;4992548;28;20084;-71
2021/04/26 07:25:54;;;;;;;5.97;2.50;;;;;;;9.92;43.61;99623.38;4993299;28;20051;-70
2021/04/26 07:28:27;;;;;;;2.95;2.15;;;;;;;10.12;42.87;99632.66;4993417;28;20413;-68
2021/04/26 07:30:53;;;;;;;3.83;2.53;;;;;;;10.18;42.11;99627.25;5010352;28;20049;-71
2021/04/26 07:33:55;;;;;;;4.07;1.90;;;;;;;10.03;42.93;99639.88;4991483;28;20072;-70
2021/04/26 07:37:01;;;;;;;3.65;1.35;;;;;;;10.34;41.70;99664.91;5000842;28;20524;-74
2021/04/26 07:39:43;;;;;;;;;;;;;;;;;;;;;
2021/04/26 07:42:48;;;;;;;5.30;1.73;;;;;;;10.19;42.22;99647.53;5011333;28;20064;-67
2021/04/26 07:45:20;;;;;;;3.03;1.27;;;;;;;9.87;42.44;99643.75;5009197;28;20064;-72
2021/04/26 07:48:01;;;;;;;4.63;1.30;;;;;;;9.81;41.85;99620.91;4993212;28;20053;-73
2021/04/26 07:50:59;;;;;;;3.53;1.75;;;;;;;10.75;40.55;99541.13;5007250;28;20029;-73
2021/04/26 07:53:57;;;;;;;3.97;1.80;;;;;;;11.45;39.08;99542.81;5025020;28;20053;-74
2021/04/26 07:57:01;;;;;;;5.90;1.52;;;;;;;10.47;41.13;99557.69;4995100;28;20041;-74
2021/04/26 07:59:30;;;;;;;4.47;1.55;;;;;;;10.37;39.50;99564.13;4976449;28;20174;-75
2021/04/26 08:02:27;;;;;;;3.50;1.10;;;;;;;10.17;39.08;99576.94;4984225;28;20070;-69
2021/04/26 08:05:15;;;;;;;3.40;1.35;;;;;;;10.71;38.32;99619.00;4895021;29;20087;-70
2021/04/26 08:08:01;;;;;;;2.08;1.67;;;;;;;13.34;35.34;99587.53;4887837;29;20053;-68
2021/04/26 08:10:48;;;;;;;2.70;1.20;;;;;;;11.96;38.45;99613.16;4856364;29;20486;-69
2021/04/26 08:13:36;;;;;;;3.85;1.95;;;;;;;13.60;35.74;99611.47;4870342;29;20051;-70
2021/04/26 08:16:22;;;;;;;1.92;1.42;;;;;;;13.61;35.70;99598.09;4832085;29;20117;-75
2021/04/26 08:19:10;;;;;;;1.63;1.10;;;;;;;13.62;35.88;99621.16;4778608;29;20051;-70
2021/04/26 08:21:59;;;;;;;2.75;1.90;;;;;;;15.87;33.07;99659.47;4743413;30;20052;-70
2021/04/26 08:33:17;;;;;;;1.60;1.00;;;;;;;12.62;36.18;99633.31;4665259;30;20149;-74
2021/04/26 08:36:04;;;;;;;4.60;1.67;;;;;;;15.12;32.95;99662.66;4637547;30;20114;-69
2021/04/26 08:39:42;;;;;;;1.73;0.82;;;;;;;13.06;35.12;99669.25;4684388;30;20140;-73
2021/04/26 08:42:28;;;;;;;1.25;0.80;;;;;;;11.88;37.25;99621.34;4647424;30;20078;-69
2021/04/26 08:45:15;;;;;;;4.57;1.75;;;;;;;11.94;36.89;99614.97;4643056;30;20051;-65
2021/04/26 08:48:10;;;;;;;1.58;1.20;;;;;;;13.93;34.32;99659.13;4658017;30;20058;-71
2021/04/26 08:52:08;;;;;;;1.50;0.95;;;;;;;10.83;38.41;99597.50;4649259;30;20062;-70
2021/04/26 08:55:01;;;;;;;8.32;1.48;;;;;;;11.07;39.19;99663.22;4645538;30;20063;-71
2021/04/26 08:57:54;;;;;;;2.00;1.20;;;;;;;9.99;38.65;99631.16;4646849;30;20135;-71
2021/04/26 09:04:57;;;;;;;4.47;1.17;;;;;;;9.94;40.35;99654.22;5074739;27;20381;-66
2021/04/26 09:07:53;;;;;;;2.20;1.00;;;;;;;9.47;40.54;99643.63;5041135;28;20053;-67
2021/04/26 09:10:39;;;;;;;7.53;1.20;;;;;;;9.37;39.45;99603.22;5042296;28;20048;-66
2021/04/26 09:13:29;;;;;;;2.13;1.08;;;;;;;9.64;39.09;99668.00;5008560;28;20049;-66
2021/04/26 09:15:59;;;;;;;2.50;1.65;;;;;;;9.46;39.87;99626.00;5010713;28;20051;-66
2021/04/26 09:18:45;;;;;;;5.32;2.50;;;;;;;9.27;40.83;99646.59;5008391;28;20177;-69
2021/04/26 09:21:36;;;;;;;4.13;1.70;;;;;;;9.57;41.59;99647.81;5010269;28;20118;-67
2021/04/26 09:24:39;;;;;;;4.53;3.03;;;;;;;9.46;41.06;99644.53;5009990;28;20054;-67
2021/04/26 09:27:12;;;;;;;4.97;2.30;;;;;;;9.63;40.59;99639.78;5039931;28;20118;-70
2021/04/26 09:29:39;;;;;;;2.58;1.55;;;;;;;9.50;40.62;99594.13;5043552;28;20539;-66
2021/04/26 09:32:08;;;;;;;4.70;1.55;;;;;;;9.75;40.18;99650.16;5007904;28;20055;-70
2021/04/26 09:34:36;;;;;;;2.63;1.52;;;;;;;9.44;38.78;99617.19;5023785;28;20044;-79
2021/04/26 09:37:06;;;;;;;3.47;1.20;;;;;;;9.58;39.83;99646.94;5005651;28;20048;-78
2021/04/26 09:39:35;;;;;;;7.43;1.40;;;;;;;9.77;39.24;99590.09;5006586;28;20077;-70
2021/04/26 09:42:01;;;;;;;3.70;1.27;;;;;;;9.57;40.18;99602.84;5005316;28;20037;-70
2021/04/26 09:44:30;;;;;;;8.65;1.60;;;;;;;9.50;41.47;99628.53;5040418;28;20446;-75
2021/04/26 09:46:57;;;;;;;5.25;1.27;;;;;;;9.46;41.77;99604.81;5006666;28;20184;-71
2021/04/26 09:49:26;;;;;;;7.60;1.55;;;;;;;9.66;42.29;99615.91;5022390;28;20045;-71
2021/04/26 09:51:55;;;;;;;7.90;1.75;;;;;;;9.65;42.12;99606.19;5007178;28;20049;-70
2021/04/26 09:54:42;;;;;;;3.65;1.63;;;;;;;9.55;41.96;99639.06;5007629;28;20497;-71
2021/04/26 09:57:09;;;;;;;2.72;1.45;;;;;;;9.50;40.92;99662.94;5008196;28;20127;-71
2021/04/26 09:59:36;;;;;;;1.33;1.00;;;;;;;9.08;40.33;99605.50;5007279;28;20428;-69
2021/04/26 10:02:19;;;;;;;4.03;1.40;;;;;;;9.05;40.64;99580.84;5008346;28;20505;-72
2021/04/26 10:04:57;;;;;;;3.75;1.63;;;;;;;9.11;40.41;99623.94;5025767;28;20107;-72
2021/04/26 10:07:23;;;;;;;3.60;1.20;;;;;;;9.55;40.54;99649.66;5007250;28;20107;-66
2021/04/26 10:09:50;;;;;;;5.10;1.25;;;;;;;9.40;41.11;99629.63;5005948;28;20445;-69
2021/04/26 10:12:17;;;;;;;3.83;1.25;;;;;;;9.02;41.33;99594.16;5024841;28;20156;-70
2021/04/26 10:14:44;;;;;;;12.05;2.55;;;;;;;9.39;41.61;99621.72;5002333;28;20049;-71
2021/04/26 10:17:14;;;;;;;4.40;1.60;;;;;;;9.72;41.25;99665.25;4991809;28;20144;-67
2021/04/26 10:19:50;;;;;;;5.32;2.20;;;;;;;9.79;40.43;99670.38;4994387;28;20037;-75
2021/04/26 10:22:33;;;;;;;4.75;1.88;;;;;;;10.56;39.15;99688.28;5010716;28;20037;-70
2021/04/26 10:25:00;;;;;;;1.80;1.15;;;;;;;12.12;35.69;99680.91;4994968;28;20047;-69
2021/04/26 10:27:35;;;;;;;1.42;1.33;;;;;;;12.59;34.78;99613.94;4994138;28;20048;-72
2021/04/26 10:30:07;;;;;;;1.58;1.13;;;;;;;11.99;36.19;99626.34;4992979;28;20497;-74
2021/04/26 10:32:56;;;;;;;2.70;1.67;;;;;;;11.45;37.50;99657.00;4994111;28;20137;-69
2021/04/26 10:35:41;;;;;;;7.38;2.28;;;;;;;10.14;39.82;99632.63;4991739;28;20461;-67
2021/04/26 10:38:33;;;;;;;2.40;1.50;;;;;;;10.27;39.59;99688.00;4993893;28;20057;-72
2021/04/26 10:41:01;;;;;;;5.45;1.63;;;;;;;9.90;40.63;99623.38;5009927;28;20041;-69
2021/04/26 10:43:37;;;;;;;4.22;1.95;;;;;;;10.29;40.75;99658.84;4992768;28;20045;-77
2021/04/26 10:46:15;;;;;;;7.70;2.83;;;;;;;10.67;40.22;99683.63;4992703;28;20087;-68
2021/04/26 10:49:30;;;;;;;5.93;2.90;;;;;;;11.23;38.16;99688.50;5010687;28;20450;-76
2021/04/26 10:52:34;;;;;;;6.18;1.95;;;;;;;13.06;35.67;99669.25;4994494;28;20060;-76
2021/04/26 10:55:51;;;;;;;;;;;;;;;;;;;;;
2021/04/26 10:59:43;;;;;;;;;;;;;;;;;;;;;
2021/04/26 11:03:05;;;;;;;5.28;1.30;;;;;;;11.92;37.37;99693.84;5105316;23;20057;-65
2021/04/26 11:05:35;;;;;;;6.50;1.60;;;;;;;11.87;38.15;99674.50;4985305;28;20074;-64
2021/04/26 11:10:38;;;;;;;3.85;1.10;;;;;;;11.35;38.61;99692.66;4987195;28;20453;-65
2021/04/26 11:13:54;;;;;;;2.22;1.10;;;;;;;12.52;37.07;99693.03;4986794;28;20050;-63
2021/04/26 11:16:20;;;;;;;8.13;1.80;;;;;;;15.01;34.04;99688.91;4986422;28;20061;-66
2021/04/26 11:18:58;;;;;;;1.77;1.17;;;;;;;15.53;31.74;99696.59;4987282;28;20054;-65
2021/04/26 11:21:42;;;;;;;4.55;1.42;;;;;;;15.21;31.69;99648.03;4987090;28;20749;-63
2021/04/26 11:24:15;;;;;;;1.55;1.20;;;;;;;15.38;32.74;99688.34;4987352;28;20104;-64
2021/04/26 11:27:14;;;;;;;5.20;2.25;;;;;;;13.65;33.85;99666.34;4986790;28;20046;-65
2021/04/26 11:29:49;;;;;;;3.80;2.28;;;;;;;15.62;32.02;99695.34;4987623;28;20057;-64
2021/04/26 11:32:17;;;;;;;3.20;1.23;;;;;;;15.83;32.03;99683.75;4986953;28;20092;-65
2021/04/26 11:34:43;;;;;;;4.35;1.00;;;;;;;13.50;34.17;99685.50;4986560;28;20038;-64
2021/04/26 11:37:10;;;;;;;2.97;1.60;;;;;;;12.32;35.92;99702.47;4970699;28;20038;-66
2021/04/26 11:39:42;;;;;;;5.07;1.38;;;;;;;11.93;36.85;99691.16;4968360;28;20051;-65
2021/04/26 11:42:10;;;;;;;7.15;1.45;;;;;;;11.92;37.73;99676.13;4986096;28;20057;-64
2021/04/26 11:44:41;;;;;;;5.28;1.35;;;;;;;10.77;37.57;99687.81;4985906;28;20125;-65
2021/04/26 11:47:11;;;;;;;3.65;1.30;;;;;;;10.75;38.88;99680.78;4986448;28;20142;-64
2021/04/26 11:49:47;;;;;;;2.42;1.65;;;;;;;10.65;39.13;99705.78;4988782;28;20074;-63
2021/04/26 11:52:21;;;;;;;4.68;1.33;;;;;;;11.42;38.58;99657.94;4986145;28;20078;-65
2021/04/26 11:54:48;;;;;;;3.40;1.42;;;;;;;11.35;38.41;99687.34;4987330;28;20054;-64
2021/04/26 11:57:19;;;;;;;3.55;1.38;;;;;;;12.00;38.19;99686.53;4986366;28;20081;-64
2021/04/26 12:00:10;;;;;;;7.63;1.50;;;;;;;11.52;38.29;99683.34;4986014;28;20108;-64
2021/04/26 12:02:50;;;;;;;4.20;1.10;;;;;;;11.44;38.64;99689.78;4987139;28;20525;-65
2021/04/26 12:05:24;;;;;;;3.20;1.40;;;;;;;11.68;38.20;99683.88;4983984;28;20042;-64
2021/04/26 12:07:54;;;;;;;5.10;0.90;;;;;;;10.78;39.14;99683.38;4987395;28;20100;-66
2021/04/26 12:10:29;;;;;;;2.35;1.30;;;;;;;10.66;39.41;99673.03;4986685;28;20046;-65
2021/04/26 12:13:02;;;;;;;2.90;1.38;;;;;;;10.77;38.80;99679.88;4986948;28;20050;-66
2021/04/26 12:15:30;;;;;;;2.63;1.30;;;;;;;10.86;38.70;99674.34;4987916;28;20659;-64
2021/04/26 12:17:58;;;;;;;2.20;1.40;;;;;;;11.04;39.19;99676.56;4985530;28;20073;-65
2021/04/26 12:20:36;;;;;;;3.20;1.40;;;;;;;11.25;38.36;99677.84;4984411;28;20046;-63
2021/04/26 12:23:05;;;;;;;3.97;1.20;;;;;;;12.11;37.24;99673.84;4987650;28;20060;-69
2021/04/26 12:25:36;;;;;;;5.43;1.63;;;;;;;12.07;37.41;99672.19;5000814;28;20053;-67
2021/04/26 12:28:07;;;;;;;5.10;1.30;;;;;;;11.64;38.12;99667.16;4987847;28;20576;-66
2021/04/26 12:30:49;;;;;;;4.80;1.42;;;;;;;11.61;38.45;99658.38;4986184;28;20046;-66
2021/04/26 12:33:29;;;;;;;2.67;1.50;;;;;;;10.89;38.43;99666.34;4986582;28;20042;-67
2021/04/26 12:35:57;;;;;;;6.50;1.55;;;;;;;11.76;37.60;99665.94;4987139;28;20132;-66
2021/04/26 12:38:26;;;;;;;3.47;1.40;;;;;;;11.73;38.29;99666.91;4983133;28;20054;-68
2021/04/26 12:40:53;;;;;;;4.93;1.80;;;;;;;11.20;38.43;99661.16;4985606;28;20058;-66
2021/04/26 12:43:19;;;;;;;4.35;1.50;;;;;;;11.02;38.96;99667.78;4985106;28;20109;-66
2021/04/26 12:45:49;;;;;;;6.43;1.80;;;;;;;11.26;38.41;99661.88;4969401;28;20050;-64
2021/04/26 12:48:16;;;;;;;5.53;1.45;;;;;;;11.04;39.00;99676.56;4986393;28;20089;-66
2021/04/26 12:51:02;;;;;;;7.07;1.77;;;;;;;10.97;39.31;99667.03;4983222;28;20494;-65
2021/04/26 12:53:28;;;;;;;8.07;2.35;;;;;;;10.74;38.26;99658.72;4984892;28;20088;-65
2021/04/26 12:56:00;;;;;;;3.08;1.52;;;;;;;10.72;38.71;99634.00;4986425;28;20054;-66
2021/04/26 12:58:29;;;;;;;7.18;1.63;;;;;;;10.70;38.86;99654.38;4986772;28;20046;-64
2021/04/26 13:01:28;;;;;;;4.45;1.73;;;;;;;11.21;38.55;99647.88;4983954;28;20050;-64
2021/04/26 13:03:59;;;;;;;3.67;1.83;;;;;;;10.92;39.34;99636.22;4983270;28;20061;-64
2021/04/26 13:06:29;;;;;;;3.88;2.10;;;;;;;10.76;39.19;99646.28;4985438;28;20850;-65
2021/04/26 13:09:03;;;;;;;7.40;3.17;;;;;;;10.84;38.67;99630.22;4985641;28;20413;-65
2021/04/26 13:11:30;;;;;;;3.13;1.55;;;;;;;11.71;37.10;99638.66;4984219;28;20042;-67
2021/04/26 13:14:38;;;;;;;7.70;1.55;;;;;;;12.42;35.84;99584.31;4985542;28;20190;-70
2021/04/26 13:17:09;;;;;;;5.05;1.88;;;;;;;12.48;36.23;99629.31;4969115;28;20738;-66